Time;durP1;ratioP1;P1;durP2;ratioP2;P2;SDS_P1;SDS_P2;PMS_P1;PMS_P2;Temp;Humidity;BMP_temperature;BMP_pressure;BME280_temperature;BME280_humidity;BME280_pressure;Samples;Min_cycle;Max_cycle;Signal;HPM_P1;HPM_P2
2023/10/07 00:01:16;;;;;;;33.40;12.50;;;;;;;9.26;53.80;99835.38;79517;1301;3013877;-65
2023/10/07 00:03:44;;;;;;;30.00;10.80;;;;;;;9.28;53.76;99832.13;78264;1296;3055425;-64
2023/10/07 00:06:13;;;;;;;26.80;10.90;;;;;;;9.22;53.82;99830.69;79490;1295;3013621;-65
2023/10/07 00:08:44;;;;;;;23.50;9.10;;;;;;;9.19;53.95;99833.75;79046;1301;3013088;-64
2023/10/07 00:11:16;;;;;;;23.50;8.80;;;;;;;9.17;54.10;99833.35;79457;1298;3013642;-63
2023/10/07 00:13:44;;;;;;;27.90;10.60;;;;;;;9.13;53.96;99830.93;78132;1300;3053676;-65
2023/10/07 00:16:14;;;;;;;26.40;11.60;;;;;;;9.07;54.14;99834.52;79461;1297;3019062;-66
2023/10/07 00:18:43;;;;;;;25.10;9.30;;;;;;;9.13;54.00;99835.45;79007;1296;3011512;-66
2023/10/07 00:21:15;;;;;;;25.10;9.30;;;;;;;9.10;53.95;99833.70;79425;1295;3014355;-64
2023/10/07 00:23:43;;;;;;;17.80;7.90;;;;;;;9.07;53.83;99831.91;78203;1301;3053550;-64
2023/10/07 00:26:09;;;;;;;11.90;5.70;;;;;;;9.06;53.83;99826.04;79350;1301;3013158;-65
2023/10/07 00:28:38;;;;;;;17.30;4.60;;;;;;;9.04;53.75;99822.80;79331;1301;3013104;-64
2023/10/07 00:31:09;;;;;;;11.30;4.50;;;;;;;9.02;53.79;99819.41;78329;1297;3067679;-65
2023/10/07 00:36:56;;;;;;;8.80;3.00;;;;;;;9.01;54.09;99822.61;78339;1301;3057017;-65
2023/10/07 00:39:20;;;;;;;13.70;2.70;;;;;;;9.02;54.10;99827.11;78223;1299;3050635;-65
2023/10/07 00:41:54;;;;;;;9.10;2.60;;;;;;;9.02;54.34;99826.55;78997;1301;3011901;-65
2023/10/07 00:44:29;;;;;;;7.50;2.70;;;;;;;8.96;54.44;99822.14;79453;1298;3011717;-65
2023/10/07 00:47:11;;;;;;;11.00;3.50;;;;;;;8.81;54.85;99809.38;78301;1300;3050057;-63
2023/10/07 00:52:14;;;;;;;6.70;3.20;;;;;;;8.55;55.63;99808.52;79456;1301;3013505;-65
2023/10/07 00:54:50;;;;;;;6.70;3.50;;;;;;;8.58;55.55;99805.77;78137;1301;3067982;-64
2023/10/07 00:58:26;;;;;;;12.10;5.20;;;;;;;8.56;55.62;99808.98;78137;1301;3051529;-65
2023/10/07 01:02:50;;;;;;;21.90;4.70;;;;;;;8.50;55.81;99796.54;79447;1301;3012291;-64
2023/10/07 01:05:26;;;;;;;11.30;5.40;;;;;;;8.57;55.41;99786.24;78275;1299;3053432;-67
2023/10/07 01:07:55;;;;;;;7.60;3.50;;;;;;;8.60;55.55;99779.47;77972;1301;3050546;-64
2023/10/07 01:10:25;;;;;;;8.90;4.20;;;;;;;8.61;55.38;99777.17;79496;1300;3013129;-65
2023/10/07 01:12:56;;;;;;;6.90;3.20;;;;;;;8.55;56.05;99779.73;78174;1300;3069103;-64
2023/10/07 01:15:23;;;;;;;8.50;2.90;;;;;;;8.58;55.82;99780.09;79594;1301;3011559;-66
2023/10/07 01:18:05;;;;;;;4.60;2.50;;;;;;;8.60;55.81;99781.76;78046;1296;3056699;-66
2023/10/07 01:20:38;;;;;;;8.10;2.90;;;;;;;8.64;55.61;99787.70;78191;1296;3049923;-66
2023/10/07 01:23:07;;;;;;;9.80;3.60;;;;;;;8.62;55.80;99783.39;79469;1296;3013009;-65
2023/10/07 01:25:36;;;;;;;10.90;4.90;;;;;;;8.53;56.33;99783.66;78275;1301;3049474;-67
2023/10/07 01:28:04;;;;;;;12.90;6.90;;;;;;;8.49;56.55;99785.58;79480;1300;3011975;-63
2023/10/07 01:30:34;;;;;;;8.10;5.10;;;;;;;8.44;56.53;99785.11;78808;1301;3012805;-64
2023/10/07 01:33:22;;;;;;;13.50;5.10;;;;;;;8.36;56.54;99784.25;79277;1301;3012865;-65
2023/10/07 01:38:44;;;;;;;18.10;5.00;;;;;;;8.21;57.11;99785.62;78061;1301;3050207;-64
2023/10/07 01:41:18;;;;;;;18.30;4.70;;;;;;;8.17;57.34;99785.43;78778;1300;3011749;-65
2023/10/07 01:44:04;;;;;;;11.40;4.90;;;;;;;8.23;57.20;99790.92;79495;1296;3013272;-64
2023/10/07 01:46:33;;;;;;;14.30;4.40;;;;;;;8.25;57.25;99790.67;78170;1301;3051326;-64
2023/10/07 01:49:04;;;;;;;14.70;5.70;;;;;;;8.28;56.91;99789.14;79572;1298;3013026;-65
2023/10/07 01:51:31;;;;;;;12.50;4.80;;;;;;;8.25;56.97;99789.62;78098;1301;3067954;-64
2023/10/07 01:54:03;;;;;;;14.40;4.00;;;;;;;8.11;57.34;99784.83;79568;1296;3013467;-65
2023/10/07 01:56:31;;;;;;;11.30;4.50;;;;;;;7.98;58.00;99789.63;78147;1301;3050022;-64
2023/10/07 02:01:51;;;;;;;15.40;4.40;;;;;;;7.88;58.07;99782.52;78050;1301;3053006;-65
2023/10/07 02:04:26;;;;;;;17.50;4.80;;;;;;;7.75;58.47;99786.09;78111;1301;3052622;-65
2023/10/07 02:06:56;;;;;;;18.70;4.90;;;;;;;7.58;59.20;99789.95;78286;1301;3069029;-65
2023/10/07 02:09:24;;;;;;;21.10;5.70;;;;;;;7.44;59.59;99787.77;79401;1295;3011483;-65
2023/10/07 02:11:54;;;;;;;15.10;5.30;;;;;;;7.36;59.85;99786.90;79023;1301;3013222;-63
2023/10/07 02:14:24;;;;;;;10.80;4.40;;;;;;;7.34;59.94;99788.02;79282;1301;3014837;-64
2023/10/07 02:16:52;;;;;;;13.20;4.30;;;;;;;7.21;60.30;99784.36;78100;1301;3049025;-63
2023/10/07 02:19:29;;;;;;;15.20;4.90;;;;;;;7.16;60.40;99792.60;79315;1301;3018428;-63
2023/10/07 02:22:06;;;;;;;11.20;4.60;;;;;;;7.12;60.29;99788.77;78302;1298;3068821;-64
2023/10/07 02:24:35;;;;;;;17.10;8.20;;;;;;;7.02;60.65;99783.59;78098;1301;3051135;-63
2023/10/07 02:27:06;;;;;;;23.80;10.80;;;;;;;6.88;61.29;99777.70;79608;1301;3013633;-65
2023/10/07 02:29:34;;;;;;;20.30;8.00;;;;;;;6.91;61.01;99775.66;78044;1301;3052783;-64
2023/10/07 02:32:12;;;;;;;9.40;4.30;;;;;;;6.87;61.05;99771.83;79352;1301;3012946;-65
2023/10/07 02:34:54;;;;;;;8.00;3.70;;;;;;;6.87;60.84;99775.13;78206;1301;3051088;-65
2023/10/07 02:37:25;;;;;;;8.90;3.30;;;;;;;6.84;61.05;99764.48;78316;1300;3069027;-63
2023/10/07 02:39:56;;;;;;;8.10;2.70;;;;;;;6.83;61.10;99771.12;79501;1298;3012958;-65
2023/10/07 02:42:31;;;;;;;8.80;3.00;;;;;;;6.85;61.04;99777.80;78243;1301;3056658;-64
2023/10/07 02:45:05;;;;;;;11.40;3.20;;;;;;;6.72;61.42;99774.48;78835;1298;3011817;-64
2023/10/07 02:47:36;;;;;;;7.60;3.20;;;;;;;6.78;61.25;99769.05;78823;1301;3011834;-63
2023/10/07 02:50:03;;;;;;;8.30;2.90;;;;;;;6.75;61.25;99769.16;79541;1300;3014920;-64
2023/10/07 02:52:37;;;;;;;8.80;3.30;;;;;;;6.68;61.55;99767.37;79732;1301;3011495;-64
2023/10/07 02:57:46;;;;;;;10.90;3.10;;;;;;;6.42;62.44;99753.05;78277;1300;3052109;-66
2023/10/07 03:00:29;;;;;;;8.40;3.70;;;;;;;6.54;61.90;99753.98;79457;1301;3014051;-67
2023/10/07 03:05:45;;;;;;;10.60;3.90;;;;;;;6.50;62.09;99748.23;78303;1301;3049449;-66
2023/10/07 03:08:22;;;;;;;8.90;3.40;;;;;;;6.49;62.12;99748.09;79305;1299;3012991;-64
2023/10/07 03:13:57;;;;;;;10.00;3.40;;;;;;;6.41;62.28;99739.16;77774;1307;3052446;-64
2023/10/07 03:19:20;;;;;;;10.40;2.90;;;;;;;6.27;62.59;99739.20;79127;1301;3013147;-65
2023/10/07 03:21:55;;;;;;;6.80;3.10;;;;;;;6.37;62.32;99733.58;78194;1298;3055960;-65
2023/10/07 03:24:40;;;;;;;9.20;3.00;;;;;;;6.32;62.37;99729.93;78029;1304;3048820;-64
2023/10/07 03:27:13;;;;;;;7.40;2.70;;;;;;;6.29;62.39;99734.41;78216;1301;3054428;-63
2023/10/07 03:29:51;;;;;;;10.70;3.80;;;;;;;6.27;62.35;99725.65;79491;1300;3011916;-63
2023/10/07 03:32:20;;;;;;;6.50;2.90;;;;;;;6.23;62.48;99725.80;78130;1309;3052847;-65
2023/10/07 03:34:46;;;;;;;11.50;3.20;;;;;;;6.17;62.71;99727.21;79282;1300;3015117;-66
2023/10/07 03:40:04;;;;;;;11.00;3.30;;;;;;;6.05;62.97;99722.65;78444;1299;3055464;-65
2023/10/07 03:42:33;;;;;;;6.40;3.90;;;;;;;6.02;63.20;99724.29;78403;1301;3048677;-65
2023/10/07 03:45:00;;;;;;;10.10;3.10;;;;;;;6.01;63.33;99718.77;79309;1299;3013659;-63
2023/10/07 03:47:32;;;;;;;12.30;3.20;;;;;;;6.07;63.20;99719.59;79364;1299;3011630;-63
2023/10/07 03:50:04;;;;;;;12.50;2.70;;;;;;;6.11;62.93;99712.66;78395;1311;3052546;-64
2023/10/07 03:52:34;;;;;;;9.60;3.00;;;;;;;6.11;63.07;99710.92;79217;1299;3011964;-67
2023/10/07 03:55:02;;;;;;;9.70;3.20;;;;;;;6.13;63.04;99707.73;78295;1301;3052059;-65
2023/10/07 03:57:29;;;;;;;10.70;3.20;;;;;;;6.14;62.98;99710.65;79384;1301;3013368;-64
2023/10/07 03:59:58;;;;;;;17.80;3.20;;;;;;;6.11;63.01;99707.61;79551;1296;3013698;-68
2023/10/07 04:05:09;;;;;;;10.50;3.70;;;;;;;5.91;63.72;99703.98;79504;1301;3011606;-65
2023/10/07 04:07:37;;;;;;;7.60;3.40;;;;;;;5.91;63.83;99706.42;78269;1301;3051952;-64
2023/10/07 04:12:46;;;;;;;7.50;4.10;;;;;;;5.90;63.94;99706.48;78234;1298;3058491;-67
2023/10/07 04:15:16;;;;;;;;;;;;;;;5.88;63.92;99707.39;79710;1297;3011954;-65
2023/10/07 04:17:45;;;;;;;12.40;3.50;;;;;;;5.86;63.99;99708.73;78294;1300;3051598;-63
2023/10/07 04:20:18;;;;;;;13.50;3.50;;;;;;;5.94;63.62;99706.66;79394;1301;3013772;-65
2023/10/07 04:23:00;;;;;;;;;;;;;;;5.87;63.90;99710.94;78323;1301;3052188;-64
2023/10/07 04:25:29;;;;;;;12.10;3.70;;;;;;;5.75;64.22;99707.56;78075;1301;3068177;-65
2023/10/07 04:27:57;;;;;;;8.80;4.00;;;;;;;5.69;64.20;99705.33;79456;1302;3012991;-67
2023/10/07 04:30:39;;;;;;;10.20;4.10;;;;;;;5.72;64.11;99707.30;79123;1295;3011611;-64
2023/10/07 04:33:09;;;;;;;16.30;4.80;;;;;;;5.70;64.29;99701.63;78362;1301;3050390;-64
2023/10/07 04:35:37;;;;;;;14.20;4.20;;;;;;;5.65;64.61;99706.71;79638;1295;3013086;-66
2023/10/07 04:46:23;;;;;;;8.10;3.60;;;;;;;5.67;64.60;99696.36;79620;1296;3013167;-64
2023/10/07 04:48:55;;;;;;;12.40;3.60;;;;;;;5.71;64.74;99694.47;78193;1295;3051411;-65
2023/10/07 04:53:59;;;;;;;14.60;3.50;;;;;;;5.82;64.42;99693.21;78492;1300;3049878;-65
2023/10/07 04:56:26;;;;;;;7.30;2.90;;;;;;;5.86;64.24;99689.57;79439;1301;3012987;-65
2023/10/07 04:58:53;;;;;;;15.30;3.50;;;;;;;5.99;63.73;99695.91;79532;1301;3011879;-64
2023/10/07 05:02:10;;;;;;;10.90;3.40;;;;;;;6.01;63.90;99692.88;78433;1300;3027730;-64
2023/10/07 05:04:15;;;;;;;7.70;3.90;;;;;;;6.08;63.88;99693.83;78334;1301;3068854;-64
2023/10/07 05:06:43;;;;;;;7.20;3.70;;;;;;;6.16;63.62;99701.17;77484;1295;3118355;-64
2023/10/07 05:09:32;;;;;;;11.40;3.90;;;;;;;6.12;63.50;99708.63;78789;1298;3012718;-64
2023/10/07 05:12:01;;;;;;;13.20;3.30;;;;;;;6.18;63.30;99710.13;78268;1302;3050447;-65
2023/10/07 05:14:28;;;;;;;6.80;3.50;;;;;;;6.30;62.94;99711.23;79618;1297;3013521;-63
2023/10/07 05:16:58;;;;;;;11.60;3.50;;;;;;;6.45;62.29;99717.10;79435;1295;3011619;-63
2023/10/07 05:19:27;;;;;;;7.10;3.30;;;;;;;6.49;62.17;99707.70;78327;1298;3051800;-63
2023/10/07 05:24:41;;;;;;;15.50;3.70;;;;;;;6.77;61.39;99716.86;78042;1301;3052415;-64
2023/10/07 05:27:08;;;;;;;6.40;2.70;;;;;;;6.89;60.97;99724.72;79577;1301;3015038;-65
2023/10/07 05:29:34;;;;;;;9.10;3.20;;;;;;;6.93;61.06;99721.06;79237;1301;3013333;-65
2023/10/07 05:32:02;;;;;;;12.80;3.20;;;;;;;7.03;60.81;99718.94;78111;1302;3049444;-64
2023/10/07 05:34:29;;;;;;;10.30;3.10;;;;;;;7.20;60.45;99717.34;79485;1301;3013837;-66
2023/10/07 05:37:02;;;;;;;10.80;3.20;;;;;;;7.25;60.46;99711.91;79678;1301;3011355;-66
2023/10/07 05:39:32;;;;;;;10.90;3.10;;;;;;;7.31;60.59;99711.63;78574;1295;3052196;-66
2023/10/07 05:41:59;;;;;;;15.10;2.90;;;;;;;7.50;60.00;99695.69;79573;1300;3013149;-65
2023/10/07 05:44:25;;;;;;;12.30;3.10;;;;;;;7.65;59.76;99692.88;79612;1295;3011653;-65
2023/10/07 05:46:53;;;;;;;15.40;3.30;;;;;;;7.76;59.77;99680.58;78413;1298;3049453;-65
2023/10/07 05:49:22;;;;;;;12.90;3.20;;;;;;;7.93;59.42;99680.96;79636;1300;3013976;-65
2023/10/07 05:51:49;;;;;;;17.50;3.80;;;;;;;8.07;58.88;99674.45;79506;1300;3011616;-66
2023/10/07 05:54:18;;;;;;;8.00;3.30;;;;;;;8.21;58.53;99678.13;78254;1298;3051631;-65
2023/10/07 05:56:47;;;;;;;8.10;3.10;;;;;;;8.29;57.95;99676.67;79270;1295;3014089;-61
2023/10/07 05:59:15;;;;;;;14.70;3.20;;;;;;;8.38;57.70;99669.47;78384;1296;3027257;-64
2023/10/07 06:01:42;;;;;;;12.50;3.80;;;;;;;8.43;57.39;99666.26;79418;1298;3013195;-64
2023/10/07 06:04:09;;;;;;;13.50;3.70;;;;;;;8.50;57.29;99674.85;79511;1298;3011590;-64
2023/10/07 06:06:37;;;;;;;8.90;3.50;;;;;;;8.51;56.90;99678.09;78369;1297;3026105;-66
2023/10/07 06:09:04;;;;;;;11.70;3.80;;;;;;;8.62;56.66;99677.94;79497;1301;3012921;-65
2023/10/07 06:11:32;;;;;;;16.20;3.50;;;;;;;8.75;56.74;99673.98;79654;1300;3011449;-65
2023/10/07 06:13:59;;;;;;;13.80;3.30;;;;;;;8.86;56.27;99676.08;77990;1301;3049064;-65
2023/10/07 06:16:26;;;;;;;11.40;3.00;;;;;;;8.98;56.13;99674.08;79859;1298;3013601;-65
2023/10/07 06:18:54;;;;;;;13.00;3.00;;;;;;;9.08;55.90;99668.48;79607;1298;3011568;-67
2023/10/07 06:21:27;;;;;;;13.00;2.90;;;;;;;9.20;55.94;99671.90;78322;1298;3025498;-66
2023/10/07 06:23:58;;;;;;;11.70;3.60;;;;;;;9.31;55.56;99667.80;79650;1299;3013007;-66
2023/10/07 06:26:30;;;;;;;12.50;3.10;;;;;;;9.40;55.32;99661.05;78366;1297;3052279;-66
2023/10/07 06:30:25;;;;;;;19.90;4.30;;;;;;;9.42;55.45;99654.84;80487;1300;3012887;-66
2023/10/07 06:32:55;;;;;;;12.60;4.20;;;;;;;9.58;55.07;99655.56;79390;1301;3013059;-64
2023/10/07 06:35:23;;;;;;;21.90;5.00;;;;;;;9.64;54.59;99651.04;78251;1301;3051966;-64
2023/10/07 06:37:57;;;;;;;14.30;4.80;;;;;;;9.61;54.79;99647.68;79379;1301;3013568;-64
2023/10/07 06:42:52;;;;;;;17.10;4.30;;;;;;;9.80;54.40;99647.78;77275;1301;3020266;-66
2023/10/07 06:45:18;;;;;;;15.90;5.30;;;;;;;9.88;54.06;99648.88;79592;1298;3011341;-65
2023/10/07 06:47:47;;;;;;;10.90;4.30;;;;;;;10.02;53.91;99651.96;78392;1300;3051169;-66
2023/10/07 06:50:19;;;;;;;18.60;4.50;;;;;;;10.15;53.86;99651.94;79608;1301;3013241;-66
2023/10/07 06:52:49;;;;;;;17.10;4.20;;;;;;;10.26;53.78;99641.71;78512;1298;3068178;-65
2023/10/07 06:55:16;;;;;;;12.40;3.80;;;;;;;10.47;53.18;99642.64;79525;1292;3013587;-67
2023/10/07 06:57:45;;;;;;;9.00;3.10;;;;;;;10.58;52.82;99640.96;79741;1298;3011917;-64
2023/10/07 07:00:23;;;;;;;16.30;4.70;;;;;;;10.74;52.69;99629.87;78449;1292;3051690;-64
2023/10/07 07:02:57;;;;;;;11.80;3.70;;;;;;;10.80;52.30;99631.11;78504;1298;3050266;-65
2023/10/07 07:05:24;;;;;;;10.50;3.70;;;;;;;11.04;52.11;99622.52;79638;1293;3011561;-65
2023/10/07 07:07:52;;;;;;;10.50;4.40;;;;;;;11.14;51.57;99614.71;78607;1295;3052337;-64
2023/10/07 07:10:27;;;;;;;13.60;4.00;;;;;;;11.13;51.79;99606.73;79791;1295;3013966;-65
2023/10/07 07:13:02;;;;;;;11.00;3.80;;;;;;;11.22;51.20;99603.73;78282;1298;3056691;-64
2023/10/07 07:15:36;;;;;;;13.30;4.00;;;;;;;11.24;51.03;99592.04;78507;1298;3048963;-65
2023/10/07 07:20:55;;;;;;;12.80;3.40;;;;;;;11.47;50.62;99582.89;78249;1302;3049370;-66
2023/10/07 07:23:32;;;;;;;11.80;3.70;;;;;;;11.56;50.65;99579.17;78451;1298;3052738;-66
2023/10/07 07:28:31;;;;;;;11.10;3.40;;;;;;;11.71;50.20;99557.52;79902;1292;3011997;-69
2023/10/07 07:30:59;;;;;;;12.10;3.40;;;;;;;11.73;49.95;99553.17;78543;1298;3029752;-64
2023/10/07 07:34:22;;;;;;;10.30;3.60;;;;;;;11.75;49.59;99554.79;80008;1296;3013318;-65
2023/10/07 07:36:37;;;;;;;18.60;4.80;;;;;;;11.80;48.96;99560.25;78419;1296;3054082;-69
2023/10/07 07:39:08;;;;;;;21.10;3.90;;;;;;;11.84;48.59;99566.34;78495;1297;3051513;-67
2023/10/07 07:41:54;;;;;;;18.00;4.00;;;;;;;11.94;48.56;99572.91;79603;1298;3011784;-70
2023/10/07 07:44:32;;;;;;;7.80;3.40;;;;;;;12.00;48.27;99568.02;78642;1298;3053126;-68
2023/10/07 07:47:03;;;;;;;14.70;3.70;;;;;;;12.03;48.10;99559.16;78739;1293;3069253;-69
2023/10/07 07:49:32;;;;;;;12.90;3.70;;;;;;;12.18;47.99;99569.98;79886;1295;3012935;-67
2023/10/07 07:52:02;;;;;;;11.90;4.10;;;;;;;12.25;47.68;99570.40;78529;1296;3055086;-67
2023/10/07 07:54:29;;;;;;;16.00;3.90;;;;;;;12.33;47.53;99555.80;79774;1298;3011679;-69
2023/10/07 07:57:04;;;;;;;13.40;3.90;;;;;;;12.37;47.44;99543.61;79313;1294;3012188;-65
2023/10/07 07:59:32;;;;;;;13.90;4.00;;;;;;;12.44;47.21;99536.86;79786;1293;3012060;-65
2023/10/07 08:02:24;;;;;;;23.60;4.60;;;;;;;12.55;46.93;99525.52;78544;1297;3051384;-68
2023/10/07 08:04:57;;;;;;;14.80;5.00;;;;;;;12.58;46.42;99534.52;78591;1298;3053463;-69
2023/10/07 08:07:27;;;;;;;13.10;4.90;;;;;;;12.63;46.39;99525.73;78748;1298;3069020;-69
2023/10/07 08:09:55;;;;;;;19.10;3.90;;;;;;;12.68;45.96;99525.17;79953;1295;3012846;-67
2023/10/07 08:12:35;;;;;;;17.60;3.70;;;;;;;12.75;46.07;99514.91;79792;1292;3013119;-68
2023/10/07 08:17:45;;;;;;;7.80;3.10;;;;;;;13.04;45.47;99506.38;78723;1295;3049977;-71
2023/10/07 08:20:13;;;;;;;15.40;2.80;;;;;;;13.18;44.75;99508.21;79915;1293;3012878;-68
2023/10/07 08:22:45;;;;;;;6.80;2.10;;;;;;;13.31;44.50;99504.47;79339;1298;3012715;-67
2023/10/07 08:25:25;;;;;;;25.00;2.70;;;;;;;13.30;44.06;99515.61;79877;1295;3011744;-69
2023/10/07 08:27:55;;;;;;;20.30;2.20;;;;;;;13.38;43.93;99491.49;78562;1298;3051173;-67
2023/10/07 08:33:23;;;;;;;11.80;2.10;;;;;;;13.51;43.67;99479.48;78303;1292;3048572;-68
2023/10/07 08:35:52;;;;;;;15.30;2.10;;;;;;;13.56;43.53;99482.63;79720;1293;3011641;-67
2023/10/07 08:38:21;;;;;;;21.10;2.40;;;;;;;13.48;43.83;99483.41;78498;1298;3050042;-67
2023/10/07 08:41:04;;;;;;;18.50;2.70;;;;;;;13.53;43.65;99469.67;79793;1295;3012835;-67
2023/10/07 08:43:43;;;;;;;10.90;2.00;;;;;;;13.62;43.61;99465.16;78463;1298;3068621;-67
2023/10/07 08:46:19;;;;;;;18.10;2.50;;;;;;;13.74;43.26;99457.73;78636;1294;3053246;-67
2023/10/07 08:48:56;;;;;;;5.80;1.50;;;;;;;13.76;43.10;99457.23;78630;1292;3056437;-68
2023/10/07 08:51:24;;;;;;;20.60;2.20;;;;;;;13.85;42.76;99458.70;78620;1296;3049469;-66
2023/10/07 08:54:04;;;;;;;15.10;1.80;;;;;;;13.92;42.62;99447.45;79876;1295;3013573;-68
2023/10/07 08:56:35;;;;;;;8.40;1.60;;;;;;;13.91;42.81;99424.77;78520;1297;3053605;-68
2023/10/07 08:59:15;;;;;;;10.70;1.80;;;;;;;14.02;42.76;99419.79;79853;1295;3011449;-67
2023/10/07 09:01:44;;;;;;;10.30;1.90;;;;;;;14.09;42.68;99418.02;78574;1298;3069021;-67
2023/10/07 09:04:11;;;;;;;20.00;2.10;;;;;;;14.26;42.82;99412.17;79622;1293;3013537;-67
2023/10/07 09:06:45;;;;;;;10.90;1.70;;;;;;;14.42;42.56;99415.09;79789;1292;3011499;-67
2023/10/07 09:09:13;;;;;;;15.80;1.80;;;;;;;14.32;42.46;99426.66;78518;1295;3052708;-69
2023/10/07 09:11:40;;;;;;;8.90;1.30;;;;;;;14.37;42.44;99417.86;79845;1298;3013704;-68
2023/10/07 09:14:07;;;;;;;26.50;2.10;;;;;;;14.42;42.48;99428.15;79942;1293;3011609;-71
2023/10/07 09:16:35;;;;;;;31.10;1.90;;;;;;;14.42;42.47;99413.37;78912;1299;3068977;-68
2023/10/07 09:19:10;;;;;;;14.70;2.00;;;;;;;14.49;42.37;99403.83;79723;1293;3013365;-71
2023/10/07 09:21:39;;;;;;;7.60;2.50;;;;;;;14.60;41.95;99397.88;78533;1298;3049465;-67
2023/10/07 09:24:13;;;;;;;13.90;2.80;;;;;;;14.57;41.94;99403.79;79710;1294;3011479;-66
2023/10/07 09:26:49;;;;;;;12.50;2.00;;;;;;;14.74;41.87;99389.94;78501;1294;3052257;-68
2023/10/07 09:29:21;;;;;;;8.90;1.50;;;;;;;14.92;41.59;99383.27;78482;1297;3052733;-65
2023/10/07 09:32:04;;;;;;;19.50;2.10;;;;;;;15.03;41.32;99377.23;79666;1300;3011437;-70
2023/10/07 09:34:41;;;;;;;14.70;2.20;;;;;;;15.15;41.06;99368.03;78663;1297;3049886;-74
2023/10/07 09:37:12;;;;;;;20.00;2.50;;;;;;;15.19;40.95;99363.27;78493;1293;3057330;-68
2023/10/07 09:39:44;;;;;;;15.90;2.50;;;;;;;15.24;40.73;99352.42;79797;1293;3011826;-67
2023/10/07 09:45:27;;;;;;;35.50;2.80;;;;;;;15.42;40.36;99318.14;78617;1295;3049773;-70
2023/10/07 09:48:00;;;;;;;13.80;2.00;;;;;;;15.40;40.26;99305.58;78712;1297;3052699;-70
2023/10/07 09:50:29;;;;;;;24.40;2.20;;;;;;;15.57;40.14;99295.23;79909;1295;3011823;-69
2023/10/07 09:53:46;;;;;;;9.60;1.60;;;;;;;15.65;40.24;99300.38;78436;1293;3068344;-65
2023/10/07 09:56:29;;;;;;;13.30;1.70;;;;;;;15.60;39.89;99298.58;78390;1298;3052771;-67
2023/10/07 09:59:35;;;;;;;16.70;2.40;;;;;;;15.77;39.79;99307.27;78546;1297;3056872;-68
2023/10/07 10:02:25;;;;;;;15.10;2.20;;;;;;;15.75;39.25;99297.20;78535;1292;3050371;-66
2023/10/07 10:05:24;;;;;;;8.60;2.30;;;;;;;15.77;39.17;99304.10;78613;1295;3053441;-71
2023/10/07 10:08:19;;;;;;;31.40;2.50;;;;;;;15.70;39.45;99273.79;78587;1297;3050693;-69
2023/10/07 10:10:49;;;;;;;16.00;2.10;;;;;;;15.68;39.63;99275.39;78672;1295;3051815;-67
2023/10/07 10:13:29;;;;;;;27.60;2.00;;;;;;;15.65;39.65;99264.84;79773;1292;3013484;-67
2023/10/07 10:16:00;;;;;;;20.40;3.60;;;;;;;15.71;39.40;99272.81;78551;1293;3068843;-67
2023/10/07 10:18:40;;;;;;;24.70;2.50;;;;;;;15.68;39.31;99265.52;79969;1295;3013314;-69
2023/10/07 10:21:12;;;;;;;26.30;2.30;;;;;;;15.67;39.26;99260.33;78623;1292;3055841;-67
2023/10/07 10:23:40;;;;;;;11.90;2.10;;;;;;;15.74;39.21;99247.88;79718;1296;3013320;-72
2023/10/07 10:26:27;;;;;;;18.90;2.00;;;;;;;15.71;39.45;99241.39;78587;1298;3053234;-67
2023/10/07 10:29:07;;;;;;;18.80;2.20;;;;;;;15.78;39.44;99238.13;78477;1298;3049506;-68
2023/10/07 10:31:35;;;;;;;10.60;1.80;;;;;;;15.78;39.19;99226.89;78395;1298;3052071;-66
2023/10/07 10:34:05;;;;;;;17.30;2.50;;;;;;;15.79;39.08;99222.55;79741;1295;3013330;-71
2023/10/07 10:36:41;;;;;;;28.90;2.50;;;;;;;15.78;39.16;99236.86;79361;1295;3011664;-71
2023/10/07 10:39:33;;;;;;;41.00;2.90;;;;;;;15.68;39.46;99240.60;79122;1294;3013440;-69
2023/10/07 10:42:02;;;;;;;9.30;2.00;;;;;;;15.81;39.08;99218.70;78463;1298;3050502;-71
2023/10/07 10:44:38;;;;;;;11.80;2.10;;;;;;;15.70;39.03;99238.66;79830;1294;3013951;-73
2023/10/07 10:47:07;;;;;;;14.60;2.10;;;;;;;15.79;38.94;99201.46;78524;1298;3053264;-67
2023/10/07 10:49:36;;;;;;;11.10;1.90;;;;;;;15.89;38.84;99200.13;79789;1298;3012922;-65
2023/10/07 10:52:05;;;;;;;22.90;2.20;;;;;;;15.97;38.74;99181.61;79319;1297;3011613;-71
2023/10/07 10:54:32;;;;;;;17.50;2.20;;;;;;;16.10;39.00;99172.34;79641;1295;3013233;-67
2023/10/07 10:56:59;;;;;;;21.70;3.20;;;;;;;16.06;38.57;99192.63;79511;1296;3013820;-74
2023/10/07 10:59:43;;;;;;;21.00;3.30;;;;;;;16.01;38.35;99205.30;78480;1295;3025901;-67
2023/10/07 11:02:17;;;;;;;29.40;2.40;;;;;;;16.04;38.16;99187.73;78389;1295;3048780;-67
2023/10/07 11:04:45;;;;;;;15.20;2.20;;;;;;;16.09;38.35;99173.19;79482;1297;3011792;-70
2023/10/07 11:07:18;;;;;;;20.10;2.10;;;;;;;16.07;38.61;99163.29;78492;1298;3050138;-71
2023/10/07 11:09:48;;;;;;;18.30;2.40;;;;;;;16.07;38.55;99170.17;79641;1297;3013030;-72
2023/10/07 11:12:20;;;;;;;42.30;2.50;;;;;;;16.07;38.56;99165.69;78488;1298;3052407;-68
2023/10/07 11:14:49;;;;;;;17.20;2.20;;;;;;;16.10;38.67;99152.79;79586;1294;3011582;-68
2023/10/07 11:17:17;;;;;;;10.90;2.30;;;;;;;16.20;38.91;99139.15;78340;1295;3050728;-72
2023/10/07 11:19:46;;;;;;;24.50;2.60;;;;;;;16.21;38.77;99130.59;79766;1295;3013022;-73
2023/10/07 11:22:14;;;;;;;26.70;2.90;;;;;;;16.22;38.90;99127.11;79774;1295;3013134;-68
2023/10/07 11:24:41;;;;;;;16.20;2.00;;;;;;;16.20;38.96;99132.23;78480;1297;3051468;-67
2023/10/07 11:27:08;;;;;;;20.90;3.30;;;;;;;16.23;39.11;99125.99;79686;1298;3012929;-69
2023/10/07 11:29:35;;;;;;;23.30;2.30;;;;;;;16.23;38.96;99114.27;79755;1292;3013024;-67
2023/10/07 11:32:07;;;;;;;26.40;2.50;;;;;;;16.22;39.01;99107.86;78553;1292;3050643;-66
2023/10/07 11:34:37;;;;;;;15.60;2.30;;;;;;;16.31;39.22;99102.42;79801;1292;3011656;-69
2023/10/07 11:37:10;;;;;;;17.20;2.30;;;;;;;16.46;39.17;99084.83;78706;1297;3050084;-74
2023/10/07 11:39:43;;;;;;;21.30;2.60;;;;;;;16.46;38.91;99093.72;79729;1292;3011807;-72
2023/10/07 11:42:15;;;;;;;16.00;2.70;;;;;;;16.55;39.21;99074.15;78557;1293;3049996;-70
2023/10/07 11:44:42;;;;;;;16.40;2.60;;;;;;;16.56;39.24;99093.52;79539;1292;3013214;-69
2023/10/07 11:47:12;;;;;;;27.20;2.90;;;;;;;16.60;39.48;99091.01;78544;1293;3026787;-70
2023/10/07 11:49:39;;;;;;;32.00;2.80;;;;;;;16.65;39.54;99085.05;79729;1298;3012478;-70
2023/10/07 11:52:09;;;;;;;19.90;2.80;;;;;;;16.64;39.92;99078.66;78468;1297;3051513;-73
2023/10/07 11:54:37;;;;;;;14.60;2.30;;;;;;;16.57;39.91;99086.63;79771;1294;3013927;-68
2023/10/07 11:57:05;;;;;;;27.60;2.70;;;;;;;16.54;40.05;99078.61;79691;1295;3011888;-71
2023/10/07 11:59:36;;;;;;;24.70;3.10;;;;;;;16.54;40.15;99074.34;78324;1298;3049706;-69
2023/10/07 12:02:09;;;;;;;19.20;3.20;;;;;;;16.51;40.25;99084.79;79765;1296;3013732;-69
2023/10/07 12:04:48;;;;;;;20.50;2.30;;;;;;;16.47;40.46;99072.42;78563;1296;3053483;-68
2023/10/07 12:07:18;;;;;;;18.70;2.50;;;;;;;16.49;40.33;99103.30;78493;1298;3070332;-70
2023/10/07 12:09:47;;;;;;;21.10;2.60;;;;;;;16.42;40.39;99086.46;79531;1296;3011664;-71
2023/10/07 12:12:15;;;;;;;28.70;2.70;;;;;;;16.47;40.30;99055.98;78426;1298;3027366;-73
2023/10/07 12:14:41;;;;;;;22.40;2.30;;;;;;;16.47;40.13;99056.65;79783;1292;3018504;-72
2023/10/07 12:17:08;;;;;;;37.30;3.30;;;;;;;16.47;39.99;99049.03;79925;1297;3011737;-69
2023/10/07 12:19:36;;;;;;;22.20;2.20;;;;;;;16.46;40.00;99053.02;78282;1295;3026666;-66
2023/10/07 12:22:06;;;;;;;11.70;1.60;;;;;;;16.47;40.03;99045.33;79805;1295;3014159;-72
2023/10/07 12:24:37;;;;;;;19.40;2.60;;;;;;;16.48;40.09;99037.09;79153;1297;3011701;-67
2023/10/07 12:27:06;;;;;;;24.60;2.80;;;;;;;16.51;39.90;99031.34;79699;1294;3013359;-69
2023/10/07 12:29:34;;;;;;;25.90;2.80;;;;;;;16.54;39.87;99041.55;78463;1298;3057852;-65
2023/10/07 12:32:00;;;;;;;33.90;4.80;;;;;;;16.56;39.76;99020.67;79690;1295;3018713;-72
2023/10/07 12:34:30;;;;;;;22.10;2.60;;;;;;;16.61;40.01;99021.83;79687;1296;3011637;-65
2023/10/07 12:36:58;;;;;;;27.30;3.30;;;;;;;16.60;40.49;99018.73;78416;1295;3053253;-66
2023/10/07 12:39:26;;;;;;;34.70;3.20;;;;;;;16.57;41.34;99010.98;79540;1296;3015374;-70
2023/10/07 12:41:52;;;;;;;20.20;2.90;;;;;;;16.54;41.71;99010.23;79438;1295;3011640;-72